OZZ weather

Ouarzazate Airport
Ouarzazate, Ouarzazate Province, Morocco

Public forecast

Using degrees Celsius for public forecast. Weather courtesy of forecast.io.

Current aviation weather report (METAR) for Ouarzazate Airport

Retrieved 2019/12/10 10:00 UTC (46 minutes ago):

GMMZ 101000Z VRB02KT CAVOK 10/03 Q1030 NOSIG

Aviation forecast (TAF) for Ouarzazate Airport

Retrieved 2019/12/10 06:18 UTC (4 hours ago):

TAF GMMZ 100500Z 1006/1112 VRB02KT CAVOK